createdAt,value
2024-03-05T00:01:01.743Z,99560.31
2024-03-05T00:03:29.725Z,99560.13
2024-03-05T00:05:57.536Z,99551.88
2024-03-05T00:08:24.751Z,99546.94
2024-03-05T00:10:51.905Z,99545.72
2024-03-05T00:13:20.178Z,99544.06
2024-03-05T00:15:47.843Z,99542.44
2024-03-05T00:18:15.199Z,99534.63
2024-03-05T00:20:42.623Z,99542.81
2024-03-05T00:23:09.909Z,99538.50
2024-03-05T00:25:37.153Z,99531.91
2024-03-05T00:28:04.410Z,99537.25
2024-03-05T00:30:31.570Z,99532.72
2024-03-05T00:32:59.754Z,99542.13
2024-03-05T00:35:26.786Z,99540.22
2024-03-05T00:37:53.838Z,99534.22
2024-03-05T00:40:20.849Z,99534.75
2024-03-05T00:42:48.139Z,99529.16
2024-03-05T00:45:18.526Z,99539.59
2024-03-05T00:47:45.795Z,99537.91
2024-03-05T00:50:15.027Z,99534.38
2024-03-05T00:52:42.286Z,99537.81
2024-03-05T00:55:10.153Z,99539.38
2024-03-05T00:57:37.926Z,99538.50
2024-03-05T01:00:06.740Z,99530.25
2024-03-05T01:02:34.042Z,99531.28
2024-03-05T01:05:01.211Z,99533.88
2024-03-05T01:07:28.536Z,99528.75
2024-03-05T01:09:56.058Z,99526.47
2024-03-05T01:12:23.166Z,99529.66
2024-03-05T01:14:50.324Z,99531.91
2024-03-05T01:17:17.450Z,99533.94
2024-03-05T01:19:44.520Z,99535.97
2024-03-05T01:22:11.874Z,99532.66
2024-03-05T01:24:39.117Z,99528.53
2024-03-05T01:27:06.430Z,99519.47
2024-03-05T01:29:33.551Z,99524.03
2024-03-05T01:32:03.097Z,99525.03
2024-03-05T01:34:30.544Z,99536.72
2024-03-05T01:37:00.442Z,99533.41
2024-03-05T01:39:29.468Z,99539.75
2024-03-05T01:41:57.969Z,99535.84
2024-03-05T01:44:26.376Z,99533.72
2024-03-05T01:46:57.220Z,99546.38
2024-03-05T01:49:26.201Z,99539.59
2024-03-05T01:51:56.240Z,99544.50
2024-03-05T01:54:25.142Z,99538.53
2024-03-05T01:56:56.079Z,99541.19
2024-03-05T01:59:24.274Z,99538.91
2024-03-05T02:01:53.351Z,99541.31
2024-03-05T02:04:22.926Z,99540.47
2024-03-05T02:06:54.271Z,99550.69
2024-03-05T02:09:23.018Z,99545.75
2024-03-05T02:11:56.587Z,99547.91
2024-03-05T02:14:30.927Z,99543.78
2024-03-05T02:17:01.329Z,99551.16
2024-03-05T02:19:49.536Z,99552.72
2024-03-05T02:22:16.995Z,99549.03
2024-03-05T02:24:44.496Z,99543.09
2024-03-05T02:27:17.411Z,99541.16
2024-03-05T02:29:48.185Z,99548.59
2024-03-05T02:32:15.721Z,99534.66
2024-03-05T02:34:42.682Z,99540.78
2024-03-05T02:37:12.845Z,99539.97
2024-03-05T02:39:40.244Z,99531.34
2024-03-05T02:42:07.453Z,99521.44
2024-03-05T02:44:34.489Z,99525.19
2024-03-05T02:47:01.729Z,99526.59
2024-03-05T02:49:29.302Z,99519.59
2024-03-05T02:51:56.386Z,99516.38
2024-03-05T02:54:23.406Z,99528.16
2024-03-05T02:56:50.837Z,99525.00
2024-03-05T02:59:18.759Z,99531.34
2024-03-05T03:01:48.125Z,99530.88
2024-03-05T03:04:16.808Z,99528.78
2024-03-05T03:06:44.384Z,99539.81
2024-03-05T03:09:11.865Z,99532.56
2024-03-05T03:11:42.708Z,99531.09
2024-03-05T03:14:10.530Z,99534.94
2024-03-05T03:16:37.840Z,99527.34
2024-03-05T03:19:05.868Z,99525.84
2024-03-05T03:21:33.318Z,99518.03
2024-03-05T03:24:00.705Z,99525.19
2024-03-05T03:26:28.047Z,99522.72
2024-03-05T03:28:56.092Z,99516.56
2024-03-05T03:31:24.077Z,99519.25
2024-03-05T03:33:51.268Z,99522.53
2024-03-05T03:36:25.635Z,99525.19
2024-03-05T03:38:53.127Z,99527.22
2024-03-05T03:41:20.995Z,99523.38
2024-03-05T03:43:48.786Z,99525.19
2024-03-05T03:46:16.170Z,99520.06
2024-03-05T03:48:43.449Z,99528.69
2024-03-05T03:51:11.032Z,99527.88
2024-03-05T03:53:38.401Z,99536.03
2024-03-05T03:56:05.935Z,99531.53
2024-03-05T03:58:34.031Z,99530.34
2024-03-05T04:01:01.527Z,99535.47
2024-03-05T04:03:31.022Z,99531.66
2024-03-05T04:05:58.206Z,99535.59
2024-03-05T04:08:25.483Z,99536.22
2024-03-05T04:10:52.587Z,99528.88
2024-03-05T04:13:19.799Z,99533.00
2024-03-05T04:15:46.836Z,99536.31
2024-03-05T04:18:14.232Z,99521.53
2024-03-05T04:20:42.136Z,99527.59
2024-03-05T04:23:11.626Z,99533.19
2024-03-05T04:25:41.659Z,99532.81
2024-03-05T04:28:13.800Z,99539.63
2024-03-05T04:30:43.018Z,99542.09
2024-03-05T04:33:12.268Z,99540.06
2024-03-05T04:35:39.776Z,99527.78
2024-03-05T04:38:06.940Z,99529.31
2024-03-05T04:40:35.382Z,99537.13
2024-03-05T04:47:46.244Z,99549.03
2024-03-05T04:50:16.154Z,99545.81
2024-03-05T04:52:44.821Z,99552.78
2024-03-05T04:55:15.042Z,99540.50
2024-03-05T04:57:42.370Z,99552.25
2024-03-05T05:00:21.165Z,99550.06
2024-03-05T05:02:50.433Z,99553.16
2024-03-05T05:05:18.188Z,99547.66
2024-03-05T05:07:46.717Z,99555.91
2024-03-05T05:10:14.332Z,99554.06
2024-03-05T05:12:41.704Z,99553.88
2024-03-05T05:15:09.435Z,99557.34
2024-03-05T05:17:36.779Z,99568.84
2024-03-05T05:20:09.626Z,99561.94
2024-03-05T05:22:40.089Z,99554.13
2024-03-05T05:25:07.970Z,99558.06
2024-03-05T05:27:38.739Z,99572.94
2024-03-05T05:30:12.988Z,99557.97
2024-03-05T05:32:41.502Z,99571.81
2024-03-05T05:35:09.585Z,99573.72
2024-03-05T05:37:38.318Z,99581.13
2024-03-05T05:40:07.095Z,99571.94
2024-03-05T05:42:34.593Z,99572.22
2024-03-05T05:45:01.930Z,99582.31
2024-03-05T05:47:30.978Z,99582.13
2024-03-05T05:49:59.702Z,99596.06
2024-03-05T05:52:27.071Z,99588.13
2024-03-05T05:54:55.827Z,99587.38
2024-03-05T05:57:22.904Z,99595.66
2024-03-05T05:59:50.122Z,99588.97
2024-03-05T06:02:20.809Z,99586.94
2024-03-05T06:04:48.181Z,99605.59
2024-03-05T06:07:15.403Z,99594.06
2024-03-05T06:09:42.751Z,99601.09
2024-03-05T06:12:09.973Z,99598.69
2024-03-05T06:14:37.496Z,99613.09
2024-03-05T06:17:04.847Z,99598.53
2024-03-05T06:19:32.012Z,99601.66
2024-03-05T06:21:59.162Z,99595.34
2024-03-05T06:24:26.621Z,99604.78
2024-03-05T06:26:53.747Z,99609.66
2024-03-05T06:29:20.861Z,99615.19
2024-03-05T06:31:49.024Z,99617.03
2024-03-05T06:34:16.587Z,99614.19
2024-03-05T06:36:47.889Z,99613.22
2024-03-05T06:39:30.754Z,99610.75
2024-03-05T06:41:59.878Z,99613.59
2024-03-05T06:44:37.026Z,99618.34
2024-03-05T06:47:06.134Z,99624.09
2024-03-05T06:49:40.031Z,99626.56
2024-03-05T06:52:25.873Z,99630.88
2024-03-05T06:55:11.637Z,99639.50
2024-03-05T06:57:38.724Z,99629.22
2024-03-05T07:00:16.597Z,99632.53
2024-03-05T07:02:43.953Z,99637.41
2024-03-05T07:05:11.235Z,99636.22
2024-03-05T07:07:38.890Z,99643.63
2024-03-05T07:10:15.385Z,99649.41
2024-03-05T07:12:46.348Z,99650.09
2024-03-05T07:15:16.182Z,99651.63
2024-03-05T07:17:46.437Z,99650.41
2024-03-05T07:20:19.958Z,99655.16
2024-03-05T07:22:48.256Z,99654.38
2024-03-05T07:25:18.775Z,99652.78
2024-03-05T07:27:48.033Z,99661.81
2024-03-05T07:30:19.666Z,99660.97
2024-03-05T07:32:50.234Z,99664.66
2024-03-05T07:35:19.648Z,99660.34
2024-03-05T07:37:48.092Z,99663.22
2024-03-05T07:40:21.814Z,99661.19
2024-03-05T07:42:53.233Z,99667.59
2024-03-05T07:45:27.358Z,99670.28
2024-03-05T07:47:54.558Z,99667.34
2024-03-05T07:50:21.850Z,99668.56
2024-03-05T07:52:49.261Z,99673.47
2024-03-05T07:55:28.961Z,99679.03
2024-03-05T07:57:58.865Z,99670.44
2024-03-05T08:00:26.146Z,99668.88
2024-03-05T08:02:56.983Z,99675.28
2024-03-05T08:05:24.617Z,99675.66
2024-03-05T08:08:00.563Z,99673.66
2024-03-05T08:10:27.862Z,99679.63
2024-03-05T08:12:56.931Z,99661.78
2024-03-05T08:15:28.663Z,99661.59
2024-03-05T08:17:57.743Z,99670.81
2024-03-05T08:20:28.046Z,99667.53
2024-03-05T08:22:56.951Z,99674.94
2024-03-05T08:25:25.433Z,99673.38
2024-03-05T08:27:56.439Z,99675.22
2024-03-05T08:30:27.440Z,99683.22
2024-03-05T08:32:55.248Z,99687.59
2024-03-05T08:35:23.435Z,99686.59
2024-03-05T08:37:51.292Z,99682.69
2024-03-05T08:40:22.561Z,99679.59
2024-03-05T08:42:51.275Z,99683.09
2024-03-05T08:45:26.209Z,99702.00
2024-03-05T08:47:55.852Z,99684.13
2024-03-05T08:50:25.140Z,99684.91
2024-03-05T08:52:52.249Z,99690.06
2024-03-05T08:55:19.601Z,99689.28
2024-03-05T08:57:47.358Z,99685.38
2024-03-05T09:00:32.007Z,99701.06
2024-03-05T09:03:09.561Z,99694.31
2024-03-05T09:05:37.388Z,99697.19
2024-03-05T09:08:06.869Z,99698.44
2024-03-05T09:10:35.572Z,99697.19
2024-03-05T09:13:03.671Z,99698.56
2024-03-05T09:15:31.585Z,99690.72
2024-03-05T09:18:00.415Z,99696.22
2024-03-05T09:20:27.543Z,99702.75
2024-03-05T09:22:57.502Z,99704.81
2024-03-05T09:25:24.746Z,99704.41
2024-03-05T09:27:52.054Z,99703.59
2024-03-05T09:30:20.737Z,99707.94
2024-03-05T09:32:48.241Z,99705.09
2024-03-05T09:35:17.097Z,99709.47
2024-03-05T09:37:49.698Z,99716.72
2024-03-05T09:40:22.164Z,99725.44
2024-03-05T09:42:49.499Z,99718.22
2024-03-05T09:45:19.057Z,99719.28
2024-03-05T09:47:49.796Z,99716.84
2024-03-05T09:50:18.996Z,99720.16
2024-03-05T09:52:48.447Z,99724.47
2024-03-05T09:55:19.106Z,99725.94
2024-03-05T09:57:50.488Z,99719.78
2024-03-05T10:00:22.389Z,99719.19
2024-03-05T10:02:53.199Z,99717.75
2024-03-05T10:05:21.458Z,99719.88
2024-03-05T10:07:50.166Z,99728.50
2024-03-05T10:10:25.385Z,99729.34
2024-03-05T10:12:52.631Z,99721.31
2024-03-05T10:15:23.587Z,99725.44
2024-03-05T10:17:54.716Z,99722.97
2024-03-05T10:20:28.597Z,99723.78
2024-03-05T10:22:59.763Z,99732.41
2024-03-05T10:25:31.328Z,99730.78
2024-03-05T10:27:58.782Z,99731.22
2024-03-05T10:30:34.251Z,99727.13
2024-03-05T10:33:09.088Z,99730.59
2024-03-05T10:35:39.668Z,99726.31
2024-03-05T10:38:14.044Z,99726.97
2024-03-05T10:40:46.034Z,99727.81
2024-03-05T10:43:19.868Z,99722.88
2024-03-05T10:45:48.610Z,99727.63
2024-03-05T10:48:19.761Z,99718.56
2024-03-05T10:50:50.681Z,99708.25
2024-03-05T10:53:19.579Z,99725.78
2024-03-05T10:55:52.676Z,99723.28
2024-03-05T10:58:21.098Z,99732.56
2024-03-05T11:00:51.234Z,99732.16
2024-03-05T11:03:40.528Z,99718.34
2024-03-05T11:06:10.659Z,99736.69
2024-03-05T11:08:38.479Z,99736.91
2024-03-05T11:11:11.091Z,99716.28
2024-03-05T11:13:40.690Z,99734.22
2024-03-05T11:16:09.680Z,99715.88
2024-03-05T11:18:38.708Z,99739.38
2024-03-05T11:21:10.548Z,99731.53
2024-03-05T11:23:51.312Z,99723.50
2024-03-05T11:26:20.544Z,99730.50
2024-03-05T11:28:54.432Z,99739.13
2024-03-05T11:31:22.483Z,99732.94
2024-03-05T11:34:10.149Z,99734.59
2024-03-05T11:36:37.953Z,99729.44
2024-03-05T11:39:16.422Z,99742.00
2024-03-05T11:41:45.022Z,99740.75
2024-03-05T11:44:14.395Z,99750.03
2024-03-05T11:46:46.152Z,99743.22
2024-03-05T11:49:14.961Z,99735.53
2024-03-05T11:51:44.303Z,99740.19
2024-03-05T11:54:13.941Z,99743.88
2024-03-05T11:56:43.221Z,99744.06
2024-03-05T11:59:11.528Z,99741.97
2024-03-05T12:01:41.108Z,99736.75
2024-03-05T12:04:09.617Z,99745.56
2024-03-05T12:06:40.340Z,99735.47
2024-03-05T12:09:20.156Z,99741.44
2024-03-05T12:11:59.072Z,99740.00
2024-03-05T12:14:26.410Z,99749.91
2024-03-05T12:16:53.778Z,99751.44
2024-03-05T12:19:23.645Z,99751.69
2024-03-05T12:21:50.772Z,99753.38
2024-03-05T12:24:18.030Z,99758.16
2024-03-05T12:26:48.749Z,99753.81
2024-03-05T12:29:34.955Z,99759.81
2024-03-05T12:32:07.750Z,99744.16
2024-03-05T12:34:36.267Z,99759.00
2024-03-05T12:37:09.516Z,99757.59
2024-03-05T12:39:37.088Z,99758.41
2024-03-05T12:42:08.576Z,99762.53
2024-03-05T12:44:36.092Z,99754.28
2024-03-05T12:47:15.418Z,99768.72
2024-03-05T12:49:45.863Z,99774.47
2024-03-05T12:52:18.581Z,99774.25
2024-03-05T12:54:46.259Z,99764.34
2024-03-05T12:57:28.008Z,99772.06
2024-03-05T12:59:57.512Z,99773.28
2024-03-05T13:02:24.895Z,99776.06
2024-03-05T13:04:53.094Z,99769.25
2024-03-05T13:07:22.274Z,99767.81
2024-03-05T13:09:49.860Z,99765.75
2024-03-05T13:12:18.357Z,99769.06
2024-03-05T13:14:45.501Z,99773.59
2024-03-05T13:17:12.503Z,99776.06
2024-03-05T13:19:39.821Z,99774.41
2024-03-05T13:22:09.803Z,99778.72
2024-03-05T13:24:39.266Z,99765.53
2024-03-05T13:27:06.528Z,99789.78
2024-03-05T13:29:34.624Z,99791.66
2024-03-05T13:32:01.888Z,99788.38
2024-03-05T13:34:29.322Z,99795.19
2024-03-05T13:36:56.472Z,99798.06
2024-03-05T13:39:25.720Z,99791.47
2024-03-05T13:41:54.963Z,99788.59
2024-03-05T13:44:25.861Z,99795.81
2024-03-05T13:47:04.236Z,99792.91
2024-03-05T13:49:47.754Z,99800.28
2024-03-05T13:52:15.870Z,99798.41
2024-03-05T13:54:45.417Z,99803.09
2024-03-05T13:57:12.613Z,99801.38
2024-03-05T13:59:39.659Z,99804.63
2024-03-05T14:02:09.835Z,99803.97
2024-03-05T14:04:37.149Z,99808.72
2024-03-05T14:07:04.626Z,99808.44
2024-03-05T14:09:31.772Z,99805.00
2024-03-05T14:11:58.891Z,99822.59
2024-03-05T14:14:26.320Z,99820.19
2024-03-05T14:16:53.488Z,99810.00
2024-03-05T14:19:24.227Z,99827.78
2024-03-05T14:21:53.729Z,99824.41
2024-03-05T14:24:20.851Z,99827.00
2024-03-05T14:26:50.902Z,99827.91
2024-03-05T14:29:18.166Z,99831.88
2024-03-05T14:31:45.225Z,99834.09
2024-03-05T14:34:14.166Z,99835.19
2024-03-05T14:36:41.347Z,99838.78
2024-03-05T14:39:11.449Z,99839.06
2024-03-05T14:41:38.594Z,99845.97
2024-03-05T14:44:06.110Z,99837.38
2024-03-05T14:46:34.196Z,99844.09
2024-03-05T14:49:01.526Z,99843.63
2024-03-05T14:51:30.206Z,99850.81
2024-03-05T14:53:58.225Z,99850.16
2024-03-05T14:56:31.231Z,99865.50
2024-03-05T14:59:01.245Z,99858.72
2024-03-05T15:01:28.415Z,99856.22
2024-03-05T15:03:55.893Z,99864.59
2024-03-05T15:06:23.265Z,99859.47
2024-03-05T15:08:53.318Z,99869.59
2024-03-05T15:11:20.981Z,99870.97
2024-03-05T15:13:48.093Z,99865.19
2024-03-05T15:16:15.304Z,99880.34
2024-03-05T15:18:42.589Z,99869.22
2024-03-05T15:21:15.615Z,99875.72
2024-03-05T15:23:43.727Z,99887.94
2024-03-05T15:26:11.845Z,99882.78
2024-03-05T15:28:41.506Z,99890.50
2024-03-05T15:31:10.689Z,99890.50
2024-03-05T15:33:41.465Z,99882.00
2024-03-05T15:36:09.680Z,99898.28
2024-03-05T15:38:36.862Z,99898.13
2024-03-05T15:41:07.881Z,99897.75
2024-03-05T15:43:35.351Z,99903.09
2024-03-05T15:46:02.899Z,99912.38
2024-03-05T15:48:31.825Z,99913.84
2024-03-05T15:50:59.957Z,99919.34
2024-03-05T15:53:27.789Z,99926.53
2024-03-05T15:56:13.442Z,99930.84
2024-03-05T15:58:43.960Z,99921.66
2024-03-05T16:01:12.595Z,99929.94
2024-03-05T16:03:56.937Z,99919.66
2024-03-05T16:06:30.156Z,99937.94
2024-03-05T16:08:57.371Z,99943.25
2024-03-05T16:11:26.803Z,99937.09
2024-03-05T16:13:55.124Z,99937.94
2024-03-05T16:16:24.837Z,99956.59
2024-03-05T16:18:52.259Z,99944.75
2024-03-05T16:21:19.930Z,99946.56
2024-03-05T16:23:47.311Z,99956.88
2024-03-05T16:26:14.450Z,99949.25
2024-03-05T16:28:41.623Z,99956.88
2024-03-05T16:31:13.126Z,99961.91
2024-03-05T16:33:44.676Z,99965.75
2024-03-05T16:36:12.086Z,99963.81
2024-03-05T16:38:39.143Z,99966.00
2024-03-05T16:41:06.329Z,99973.00
2024-03-05T16:43:33.965Z,99968.66
2024-03-05T16:46:01.337Z,99975.66
2024-03-05T16:48:28.664Z,99974.66
2024-03-05T16:50:55.889Z,99977.31
2024-03-05T16:53:23.389Z,99980.31
2024-03-05T16:55:50.626Z,99983.28
2024-03-05T16:58:19.634Z,99982.47
2024-03-05T17:00:56.151Z,99976.47
2024-03-05T17:03:25.813Z,99984.19
2024-03-05T17:05:54.206Z,99994.50
2024-03-05T17:08:22.637Z,99979.88
2024-03-05T17:10:52.402Z,99990.69
2024-03-05T17:13:20.722Z,99987.84
2024-03-05T17:16:00.709Z,99982.34
2024-03-05T17:18:30.775Z,99989.69
2024-03-05T17:20:59.323Z,99992.19
2024-03-05T17:23:27.900Z,99995.50
2024-03-05T17:25:58.786Z,99996.34
2024-03-05T17:28:30.426Z,99995.84
2024-03-05T17:31:00.517Z,100000.53
2024-03-05T17:33:32.003Z,99995.44
2024-03-05T17:35:59.424Z,100002.72
2024-03-05T17:38:30.480Z,100003.72
2024-03-05T17:41:00.922Z,100009.88
2024-03-05T17:43:28.085Z,100003.84
2024-03-05T17:45:55.469Z,100006.34
2024-03-05T17:48:23.711Z,100010.84
2024-03-05T17:50:53.476Z,100002.53
2024-03-05T17:53:21.796Z,100008.88
2024-03-05T17:55:52.468Z,99993.06
2024-03-05T17:58:22.974Z,100016.72
2024-03-05T18:00:50.219Z,100012.28
2024-03-05T18:03:22.545Z,100017.78
2024-03-05T18:05:49.890Z,100012.63
2024-03-05T18:08:17.272Z,100008.63
2024-03-05T18:10:47.501Z,100022.09
2024-03-05T18:13:18.586Z,100009.63
2024-03-05T18:15:47.267Z,100019.44
2024-03-05T18:18:19.335Z,100019.63
2024-03-05T18:20:47.573Z,100007.50
2024-03-05T18:23:14.889Z,100009.69
2024-03-05T18:25:43.309Z,100020.81
2024-03-05T18:28:11.015Z,100009.69
2024-03-05T18:30:43.417Z,100019.94
2024-03-05T18:33:12.825Z,100013.78
2024-03-05T18:35:41.587Z,100011.28
2024-03-05T18:40:41.416Z,100005.78
2024-03-05T18:43:11.140Z,100014.06
2024-03-05T18:45:38.864Z,100014.06
2024-03-05T18:48:10.106Z,100026.38
2024-03-05T18:50:38.794Z,100010.06
2024-03-05T18:53:07.655Z,100029.34
2024-03-05T18:55:37.576Z,100023.72
2024-03-05T18:58:09.653Z,100024.06
2024-03-05T19:00:41.660Z,100015.78
2024-03-05T19:03:09.373Z,100012.28
2024-03-05T19:05:37.808Z,100024.94
2024-03-05T19:08:07.816Z,100025.25
2024-03-05T19:10:37.585Z,100030.28
2024-03-05T19:13:10.147Z,100021.16
2024-03-05T19:15:41.077Z,100020.50
2024-03-05T19:18:13.640Z,100018.50
2024-03-05T19:20:40.801Z,100030.13
2024-03-05T19:23:11.831Z,100026.47
2024-03-05T19:25:39.981Z,100027.31
2024-03-05T19:28:08.501Z,100041.78
2024-03-05T19:30:38.990Z,100028.50
2024-03-05T19:33:06.614Z,100031.53
2024-03-05T19:35:47.741Z,100030.22
2024-03-05T19:38:16.807Z,100042.00
2024-03-05T19:40:46.554Z,100006.16
2024-03-05T19:48:55.948Z,100034.66
2024-03-05T19:51:35.178Z,100021.72
2024-03-05T19:57:20.232Z,100036.25
2024-03-05T19:59:47.424Z,100034.59
2024-03-05T20:02:14.639Z,100039.25
2024-03-05T20:04:43.056Z,100040.44
2024-03-05T20:07:11.813Z,100040.63
2024-03-05T20:09:39.518Z,100040.31
2024-03-05T20:12:07.042Z,100042.31
2024-03-05T20:14:37.202Z,100036.31
2024-03-05T20:17:08.803Z,100037.81
2024-03-05T20:19:39.253Z,100038.47
2024-03-05T20:22:07.166Z,100036.47
2024-03-05T20:24:37.036Z,100034.47
2024-03-05T20:27:04.262Z,100041.09
2024-03-05T20:29:31.431Z,100034.59
2024-03-05T20:31:58.796Z,100038.75
2024-03-05T20:34:27.795Z,100033.25
2024-03-05T20:36:55.714Z,100038.25
2024-03-05T20:39:22.815Z,100036.25
2024-03-05T20:41:49.961Z,100031.94
2024-03-05T20:44:18.146Z,100040.75
2024-03-05T20:46:45.216Z,100035.59
2024-03-05T20:49:14.665Z,100024.59
2024-03-05T20:51:41.896Z,100034.09
2024-03-05T20:54:09.086Z,100031.94
2024-03-05T20:56:36.157Z,100033.16
2024-03-05T20:59:03.474Z,100031.19
2024-03-05T21:01:33.607Z,100040.00
2024-03-05T21:04:01.672Z,100027.03
2024-03-05T21:06:28.889Z,100038.81
2024-03-05T21:08:59.560Z,100039.13
2024-03-05T21:11:26.917Z,100036.28
2024-03-05T21:13:55.163Z,100024.03
2024-03-05T21:16:22.307Z,100041.31
2024-03-05T21:18:51.299Z,100025.84
2024-03-05T21:21:18.562Z,100032.38
2024-03-05T21:23:45.758Z,100040.06
2024-03-05T21:26:27.607Z,100038.22
2024-03-05T21:29:01.812Z,100024.63
2024-03-05T21:31:30.269Z,100033.09
2024-03-05T21:33:57.516Z,100031.59
2024-03-05T21:36:27.504Z,100043.25
2024-03-05T21:38:54.982Z,100041.06
2024-03-05T21:41:22.024Z,100027.59
2024-03-05T21:43:50.311Z,100044.53
2024-03-05T21:46:17.522Z,100046.53
2024-03-05T21:48:45.228Z,100046.88
2024-03-05T21:51:15.919Z,100033.78
2024-03-05T21:53:44.142Z,100046.75
2024-03-05T21:56:11.501Z,100047.56
2024-03-05T21:58:43.383Z,100049.88
2024-03-05T22:01:11.042Z,100059.03
2024-03-05T22:03:38.214Z,100062.03
2024-03-05T22:06:15.023Z,100056.53
2024-03-05T22:08:47.539Z,100060.19
2024-03-05T22:11:15.533Z,100058.53
2024-03-05T22:13:42.804Z,100060.53
2024-03-05T22:16:09.880Z,100059.19
2024-03-05T22:18:37.776Z,100059.03
2024-03-05T22:21:05.229Z,100071.31
2024-03-05T22:23:33.088Z,100070.31
2024-03-05T22:26:00.208Z,100066.19
2024-03-05T22:28:27.518Z,100069.81
2024-03-05T22:30:55.649Z,100075.09
2024-03-05T22:33:23.625Z,100072.94
2024-03-05T22:35:50.828Z,100071.13
2024-03-05T22:38:18.066Z,100072.59
2024-03-05T22:40:45.201Z,100083.84
2024-03-05T22:43:13.337Z,100068.56
2024-03-05T22:45:40.369Z,100061.41
2024-03-05T22:48:07.682Z,100067.06
2024-03-05T22:50:34.758Z,100074.69
2024-03-05T22:53:02.173Z,100070.88
2024-03-05T22:55:29.376Z,100068.38
2024-03-05T22:57:56.423Z,100075.84
2024-03-05T23:00:24.477Z,100081.50
2024-03-05T23:02:52.894Z,100080.34
2024-03-05T23:05:21.218Z,100073.03
2024-03-05T23:07:48.925Z,100081.50
2024-03-05T23:10:17.702Z,100065.66
2024-03-05T23:12:46.358Z,100072.50
2024-03-05T23:15:16.513Z,100084.25
2024-03-05T23:17:44.710Z,100076.59
2024-03-05T23:20:13.024Z,100083.41
2024-03-05T23:22:40.865Z,100078.09
2024-03-05T23:25:08.959Z,100079.41
2024-03-05T23:27:48.500Z,100081.53
2024-03-05T23:30:19.889Z,100088.16
2024-03-05T23:32:47.832Z,100082.63
2024-03-05T23:35:15.875Z,100090.09
2024-03-05T23:37:43.265Z,100094.03
2024-03-05T23:40:11.144Z,100092.88
2024-03-05T23:42:39.566Z,100096.97
2024-03-05T23:45:08.069Z,100087.31
2024-03-05T23:47:35.596Z,100089.75
2024-03-05T23:50:03.462Z,100096.34
2024-03-05T23:52:33.467Z,100080.03
2024-03-05T23:55:02.693Z,100093.13
2024-03-05T23:57:31.275Z,100090.28
2024-03-05T23:59:58.401Z,100100.16
